Nagaleader — VRDD5 — position and weather

sailwx.info

Track history (hours):
 
Tides and Currents Weather Stations Pressure Air Temp Water Temp Dewpoint Dewpoint Depression Visibility Wind Speed Wind Dir Waves Ship Positions

Nagaleader

Last reported at 2014-Nov-21 18:33 UTC. Time now 2014-Nov-21 19:13 UTC.
Position N 22°42' E 120°08'.

Length 113 m; draft 5.5 m.

Type: Cargo ship. MMSI: 477926700.

Date/timePositionNaut miles runAvg speedWind from/ knotsBaromVisibWave heightAir tempDewpointWater temp
2014-Nov-21 18:33N 22°42' E 120°08'1212.0
2014-Nov-21 17:33N 22°33' E 120°16'3 2.9
2014-Nov-21 16:33N 22°34' E 120°19'0 0.1
2014-Nov-21 15:33N 22°34' E 120°19'0 0.1
2014-Nov-21 14:27N 22°34' E 120°19'0 0.1
2014-Nov-21 13:27N 22°34' E 120°19'0 0.1
2014-Nov-21 12:21N 22°34' E 120°19'0 0.2
2014-Nov-21 11:33N 22°33' E 120°19'1 0.9
2014-Nov-21 10:27N 22°33' E 120°20'0 0.0
2014-Nov-21 09:33N 22°33' E 120°20'0 0.0
2014-Nov-21 07:21N 22°33' E 120°20'0 0.0
2014-Nov-21 06:15N 22°33' E 120°20'0 0.0
2014-Nov-21 05:33N 22°33' E 120°20'0 0.0
2014-Nov-21 04:27N 22°33' E 120°20'0 0.0
2014-Nov-21 03:27N 22°33' E 120°20'0 0.0
2014-Nov-21 02:27N 22°33' E 120°20'0 0.0
2014-Nov-21 01:33N 22°33' E 120°20'0 0.0
2014-Nov-21 00:32N 22°33' E 120°20'4 4.1
2014-Nov-20 23:33N 22°33' E 120°15'4 3.7
2014-Nov-20 22:33N 22°31' E 120°12'9 9.3
2014-Nov-20 21:33N 22°39' E 120°09'18912.3
2014-Nov-20 06:14N 25°48' E 119°54'1911.2
2014-Nov-20 04:32N 26°05' E 119°45'1010.4
2014-Nov-20 03:33N 26°08' E 119°34'9 8.5
2014-Nov-20 02:31N 26°00' E 119°29'0 0.0
2014-Nov-20 01:25N 26°00' E 119°29'0 0.0
2014-Nov-20 00:31N 26°00' E 119°29'0 0.0
2014-Nov-19 23:31N 26°00' E 119°29'0 0.0
2014-Nov-19 22:31N 26°00' E 119°29'0 0.0
2014-Nov-19 21:31N 26°00' E 119°29'0 0.0
2014-Nov-19 20:31N 26°00' E 119°29'0 0.0
2014-Nov-19 19:25N 26°00' E 119°29'0 0.0
2014-Nov-19 18:31N 26°00' E 119°29'0 0.1
2014-Nov-19 17:31N 26°00' E 119°29'0 0.1
2014-Nov-19 16:31N 26°00' E 119°29'0 0.0
2014-Nov-19 15:31N 26°00' E 119°29'0 0.0
2014-Nov-19 14:31N 26°00' E 119°29'0 0.0
2014-Nov-19 13:31N 26°00' E 119°29'0 0.0
2014-Nov-19 12:25N 26°00' E 119°29'0 0.0
2014-Nov-19 11:31N 26°00' E 119°29'0 0.0
2014-Nov-19 10:31N 26°00' E 119°29'0 0.2
2014-Nov-19 09:33N 26°00' E 119°29'68 6.1
2014-Nov-18 22:33N 24°54' E 119°14'1010.4
2014-Nov-18 21:33N 24°47' E 119°06'1010.1
2014-Nov-18 20:33N 24°37' E 119°03'121 6.6
2014-Nov-18 02:07N 22°47' E 119°57'711.8
2014-Nov-18 01:33N 22°44' E 120°03'1312.7
2014-Nov-18 00:33N 22°37' E 120°15'5 5.1
2014-Nov-17 23:32N 22°34' E 120°19'0 0.0
2014-Nov-17 22:26N 22°34' E 120°19'0 0.0
2014-Nov-17 21:32N 22°34' E 120°19'0 0.0
2014-Nov-17 20:32N 22°34' E 120°19'0 0.0
2014-Nov-17 19:32N 22°34' E 120°19'1 1.0
2014-Nov-17 18:33N 22°33' E 120°20'0 0.2
2014-Nov-17 17:20N 22°33' E 120°20'0 0.0
2014-Nov-17 16:32N 22°33' E 120°20'0 0.0
2014-Nov-17 15:32N 22°33' E 120°20'0 0.0
2014-Nov-17 14:32N 22°33' E 120°20'0 0.0
2014-Nov-17 13:32N 22°33' E 120°20'0 0.0
2014-Nov-17 12:32N 22°33' E 120°20'1 0.8
2014-Nov-17 11:32N 22°33' E 120°19'3 3.4
2014-Nov-17 10:34N 22°32' E 120°16'0 0.0
2014-Nov-17 09:34N 22°32' E 120°16'0 0.0
2014-Nov-17 08:33N 22°32' E 120°16'0 0.0
2014-Nov-17 07:33N 22°32' E 120°16'0 0.0
2014-Nov-17 06:34N 22°32' E 120°16'1 0.9
2014-Nov-17 05:33N 22°32' E 120°15'1111.2
2014-Nov-17 04:33N 22°41' E 120°08'19512.0
2014-Nov-16 12:16N 25°56' E 119°51'1010.9
2014-Nov-16 11:19N 26°05' E 119°47'1111.0
2014-Nov-16 10:21N 26°08' E 119°35'7 8.2
2014-Nov-16 09:33N 26°03' E 119°30'3 2.9
2014-Nov-16 08:27N 26°00' E 119°29'0 0.0
2014-Nov-16 07:27N 26°00' E 119°29'0 0.0
2014-Nov-16 06:33N 26°00' E 119°29'0 0.0
2014-Nov-16 05:33N 26°00' E 119°29'0 0.0
2014-Nov-16 04:33N 26°00' E 119°29'0 0.0
2014-Nov-16 03:33N 26°00' E 119°29'0 0.0
2014-Nov-16 02:33N 26°00' E 119°29'0 0.0
2014-Nov-16 01:33N 26°00' E 119°29'0 0.0
2014-Nov-16 00:33N 26°00' E 119°29'0 0.0
2014-Nov-15 23:33N 26°00' E 119°29'0 0.0
2014-Nov-15 22:15N 26°00' E 119°29'0 0.0
2014-Nov-15 21:33N 26°00' E 119°29'0 0.0
2014-Nov-15 20:33N 26°00' E 119°29'3 3.3
2014-Nov-15 19:33N 26°03' E 119°30'69 6.7
2014-Nov-15 09:22N 24°56' E 119°16'10 8.9
2014-Nov-15 08:17N 24°47' E 119°12'6 8.8
2014-Nov-15 07:33N 24°41' E 119°09'8 8.0
2014-Nov-15 06:33N 24°34' E 119°06'123 8.8
2014-Nov-14 16:30N 22°42' E 120°02'1213.1
2014-Nov-14 15:33N 22°33' E 120°12'7 6.8
2014-Nov-14 14:33N 22°34' E 120°19'0 0.0
2014-Nov-14 12:28N 22°34' E 120°19'0 0.0
2014-Nov-14 11:28N 22°34' E 120°19'0 0.0
2014-Nov-14 10:28N 22°34' E 120°19'0 0.0
2014-Nov-14 09:28N 22°34' E 120°19'0 0.0
2014-Nov-14 08:28N 22°34' E 120°19'0 0.0
2014-Nov-14 07:28N 22°34' E 120°19'0 0.0
2014-Nov-14 06:28N 22°34' E 120°19'0 0.0
2014-Nov-14 04:28N 22°34' E 120°19'0 0.0
2014-Nov-14 03:28N 22°34' E 120°19'0 0.0
2014-Nov-14 02:28N 22°34' E 120°19'0 0.0
2014-Nov-14 01:29N 22°34' E 120°19'4 4.0
2014-Nov-14 00:33N 22°32' E 120°15'2 1.8
2014-Nov-13 23:33N 22°31' E 120°14'0 0.4
2014-Nov-13 22:33N 22°31' E 120°13'0 0.4
2014-Nov-13 21:33N 22°31' E 120°13'0 0.4
2014-Nov-13 20:33N 22°31' E 120°13'0 0.3
2014-Nov-13 19:33N 22°30' E 120°12'0 0.2
2014-Nov-13 18:33N 22°30' E 120°12'4 3.5
2014-Nov-13 17:33N 22°33' E 120°11'1312.8
2014-Nov-13 16:33N 22°46' E 120°06'18713.1
2014-Nov-13 02:21N 25°52' E 119°52'1311.7
2014-Nov-13 01:15N 26°04' E 119°48'1211.3
2014-Nov-13 00:08N 26°08' E 119°35'712.2
2014-Nov-12 23:33N 26°02' E 119°30'2 1.9
2014-Nov-12 22:22N 26°00' E 119°29'0 0.0
2014-Nov-12 21:28N 26°00' E 119°29'0 0.0
2014-Nov-12 20:22N 26°00' E 119°29'0 0.0
2014-Nov-12 19:28N 26°00' E 119°29'0 0.0
2014-Nov-12 18:28N 26°00' E 119°29'0 0.0
2014-Nov-12 17:28N 26°00' E 119°29'0 0.0
2014-Nov-12 16:28N 26°00' E 119°29'0 0.0
2014-Nov-12 15:28N 26°00' E 119°29'0 0.0
2014-Nov-12 14:22N 26°00' E 119°29'0 0.0
2014-Nov-12 13:28N 26°00' E 119°29'0 0.0
2014-Nov-12 12:28N 26°00' E 119°29'0 0.0
2014-Nov-12 11:22N 26°00' E 119°29'0 0.0
2014-Nov-12 10:22N 26°00' E 119°29'0 0.0
2014-Nov-12 09:28N 26°00' E 119°29'0 0.0
2014-Nov-12 08:28N 26°00' E 119°29'0 0.0
2014-Nov-12 07:22N 26°00' E 119°29'0 0.0
2014-Nov-12 06:28N 26°00' E 119°29'0 0.0
2014-Nov-12 05:28N 26°00' E 119°29'0 0.0
2014-Nov-12 04:28N 26°00' E 119°29'0 0.0
2014-Nov-12 03:28N 26°00' E 119°29'0 0.0
2014-Nov-12 02:28N 26°00' E 119°29'0 0.0
2014-Nov-12 01:28N 26°00' E 119°29'0 0.0
2014-Nov-12 00:33N 26°00' E 119°29'7 7.3
2014-Nov-11 23:33N 26°07' E 119°33'  
Track history (hours):
 
Tides and Currents Weather Stations Pressure Air Temp Water Temp Dewpoint Dewpoint Depression Visibility Wind Speed Wind Dir Waves Ship Positions

Nagaleader

Last reported at 2014-Nov-21 18:33 UTC. Time now 2014-Nov-21 19:13 UTC.
Position N 22°42' E 120°08'.

Length 113 m; draft 5.5 m.

Type: Cargo ship. MMSI: 477926700.

Date/timePositionNaut miles runAvg speedWind from/ knotsBaromVisibWave heightAir tempDewpointWater temp
2014-Nov-21 18:33N 22°42' E 120°08'1212.0
2014-Nov-21 17:33N 22°33' E 120°16'3 2.9
2014-Nov-21 16:33N 22°34' E 120°19'0 0.1
2014-Nov-21 15:33N 22°34' E 120°19'0 0.1
2014-Nov-21 14:27N 22°34' E 120°19'0 0.1
2014-Nov-21 13:27N 22°34' E 120°19'0 0.1
2014-Nov-21 12:21N 22°34' E 120°19'0 0.2
2014-Nov-21 11:33N 22°33' E 120°19'1 0.9
2014-Nov-21 10:27N 22°33' E 120°20'0 0.0
2014-Nov-21 09:33N 22°33' E 120°20'0 0.0
2014-Nov-21 07:21N 22°33' E 120°20'0 0.0
2014-Nov-21 06:15N 22°33' E 120°20'0 0.0
2014-Nov-21 05:33N 22°33' E 120°20'0 0.0
2014-Nov-21 04:27N 22°33' E 120°20'0 0.0
2014-Nov-21 03:27N 22°33' E 120°20'0 0.0
2014-Nov-21 02:27N 22°33' E 120°20'0 0.0
2014-Nov-21 01:33N 22°33' E 120°20'0 0.0
2014-Nov-21 00:32N 22°33' E 120°20'4 4.1
2014-Nov-20 23:33N 22°33' E 120°15'4 3.7
2014-Nov-20 22:33N 22°31' E 120°12'9 9.3
2014-Nov-20 21:33N 22°39' E 120°09'18912.3
2014-Nov-20 06:14N 25°48' E 119°54'1911.2
2014-Nov-20 04:32N 26°05' E 119°45'1010.4
2014-Nov-20 03:33N 26°08' E 119°34'9 8.5
2014-Nov-20 02:31N 26°00' E 119°29'0 0.0
2014-Nov-20 01:25N 26°00' E 119°29'0 0.0
2014-Nov-20 00:31N 26°00' E 119°29'0 0.0
2014-Nov-19 23:31N 26°00' E 119°29'0 0.0
2014-Nov-19 22:31N 26°00' E 119°29'0 0.0
2014-Nov-19 21:31N 26°00' E 119°29'0 0.0
2014-Nov-19 20:31N 26°00' E 119°29'0 0.0
2014-Nov-19 19:25N 26°00' E 119°29'0 0.0
2014-Nov-19 18:31N 26°00' E 119°29'0 0.1
2014-Nov-19 17:31N 26°00' E 119°29'0 0.1
2014-Nov-19 16:31N 26°00' E 119°29'0 0.0
2014-Nov-19 15:31N 26°00' E 119°29'0 0.0
2014-Nov-19 14:31N 26°00' E 119°29'0 0.0
2014-Nov-19 13:31N 26°00' E 119°29'0 0.0
2014-Nov-19 12:25N 26°00' E 119°29'0 0.0
2014-Nov-19 11:31N 26°00' E 119°29'0 0.0
2014-Nov-19 10:31N 26°00' E 119°29'0 0.2
2014-Nov-19 09:33N 26°00' E 119°29'68 6.1
2014-Nov-18 22:33N 24°54' E 119°14'1010.4
2014-Nov-18 21:33N 24°47' E 119°06'1010.1
2014-Nov-18 20:33N 24°37' E 119°03'121 6.6
2014-Nov-18 02:07N 22°47' E 119°57'711.8
2014-Nov-18 01:33N 22°44' E 120°03'1312.7
2014-Nov-18 00:33N 22°37' E 120°15'5 5.1
2014-Nov-17 23:32N 22°34' E 120°19'0 0.0
2014-Nov-17 22:26N 22°34' E 120°19'0 0.0
2014-Nov-17 21:32N 22°34' E 120°19'0 0.0
2014-Nov-17 20:32N 22°34' E 120°19'0 0.0
2014-Nov-17 19:32N 22°34' E 120°19'1 1.0
2014-Nov-17 18:33N 22°33' E 120°20'0 0.2
2014-Nov-17 17:20N 22°33' E 120°20'0 0.0
2014-Nov-17 16:32N 22°33' E 120°20'0 0.0
2014-Nov-17 15:32N 22°33' E 120°20'0 0.0
2014-Nov-17 14:32N 22°33' E 120°20'0 0.0
2014-Nov-17 13:32N 22°33' E 120°20'0 0.0
2014-Nov-17 12:32N 22°33' E 120°20'1 0.8
2014-Nov-17 11:32N 22°33' E 120°19'3 3.4
2014-Nov-17 10:34N 22°32' E 120°16'0 0.0
2014-Nov-17 09:34N 22°32' E 120°16'0 0.0
2014-Nov-17 08:33N 22°32' E 120°16'0 0.0
2014-Nov-17 07:33N 22°32' E 120°16'0 0.0
2014-Nov-17 06:34N 22°32' E 120°16'1 0.9
2014-Nov-17 05:33N 22°32' E 120°15'1111.2
2014-Nov-17 04:33N 22°41' E 120°08'19512.0
2014-Nov-16 12:16N 25°56' E 119°51'1010.9
2014-Nov-16 11:19N 26°05' E 119°47'1111.0
2014-Nov-16 10:21N 26°08' E 119°35'7 8.2
2014-Nov-16 09:33N 26°03' E 119°30'3 2.9
2014-Nov-16 08:27N 26°00' E 119°29'0 0.0
2014-Nov-16 07:27N 26°00' E 119°29'0 0.0
2014-Nov-16 06:33N 26°00' E 119°29'0 0.0
2014-Nov-16 05:33N 26°00' E 119°29'0 0.0
2014-Nov-16 04:33N 26°00' E 119°29'0 0.0
2014-Nov-16 03:33N 26°00' E 119°29'0 0.0
2014-Nov-16 02:33N 26°00' E 119°29'0 0.0
2014-Nov-16 01:33N 26°00' E 119°29'0 0.0
2014-Nov-16 00:33N 26°00' E 119°29'0 0.0
2014-Nov-15 23:33N 26°00' E 119°29'0 0.0
2014-Nov-15 22:15N 26°00' E 119°29'0 0.0
2014-Nov-15 21:33N 26°00' E 119°29'0 0.0
2014-Nov-15 20:33N 26°00' E 119°29'3 3.3
2014-Nov-15 19:33N 26°03' E 119°30'69 6.7
2014-Nov-15 09:22N 24°56' E 119°16'10 8.9
2014-Nov-15 08:17N 24°47' E 119°12'6 8.8
2014-Nov-15 07:33N 24°41' E 119°09'8 8.0
2014-Nov-15 06:33N 24°34' E 119°06'123 8.8
2014-Nov-14 16:30N 22°42' E 120°02'1213.1
2014-Nov-14 15:33N 22°33' E 120°12'7 6.8
2014-Nov-14 14:33N 22°34' E 120°19'0 0.0
2014-Nov-14 12:28N 22°34' E 120°19'0 0.0
2014-Nov-14 11:28N 22°34' E 120°19'0 0.0
2014-Nov-14 10:28N 22°34' E 120°19'0 0.0
2014-Nov-14 09:28N 22°34' E 120°19'0 0.0
2014-Nov-14 08:28N 22°34' E 120°19'0 0.0
2014-Nov-14 07:28N 22°34' E 120°19'0 0.0
2014-Nov-14 06:28N 22°34' E 120°19'0 0.0
2014-Nov-14 04:28N 22°34' E 120°19'0 0.0
2014-Nov-14 03:28N 22°34' E 120°19'0 0.0
2014-Nov-14 02:28N 22°34' E 120°19'0 0.0
2014-Nov-14 01:29N 22°34' E 120°19'4 4.0
2014-Nov-14 00:33N 22°32' E 120°15'2 1.8
2014-Nov-13 23:33N 22°31' E 120°14'0 0.4
2014-Nov-13 22:33N 22°31' E 120°13'0 0.4
2014-Nov-13 21:33N 22°31' E 120°13'0 0.4
2014-Nov-13 20:33N 22°31' E 120°13'0 0.3
2014-Nov-13 19:33N 22°30' E 120°12'0 0.2
2014-Nov-13 18:33N 22°30' E 120°12'4 3.5
2014-Nov-13 17:33N 22°33' E 120°11'1312.8
2014-Nov-13 16:33N 22°46' E 120°06'18713.1
2014-Nov-13 02:21N 25°52' E 119°52'1311.7
2014-Nov-13 01:15N 26°04' E 119°48'1211.3
2014-Nov-13 00:08N 26°08' E 119°35'712.2
2014-Nov-12 23:33N 26°02' E 119°30'2 1.9
2014-Nov-12 22:22N 26°00' E 119°29'0 0.0
2014-Nov-12 21:28N 26°00' E 119°29'0 0.0
2014-Nov-12 20:22N 26°00' E 119°29'0 0.0
2014-Nov-12 19:28N 26°00' E 119°29'0 0.0
2014-Nov-12 18:28N 26°00' E 119°29'0 0.0
2014-Nov-12 17:28N 26°00' E 119°29'0 0.0
2014-Nov-12 16:28N 26°00' E 119°29'0 0.0
2014-Nov-12 15:28N 26°00' E 119°29'0 0.0
2014-Nov-12 14:22N 26°00' E 119°29'0 0.0
2014-Nov-12 13:28N 26°00' E 119°29'0 0.0
2014-Nov-12 12:28N 26°00' E 119°29'0 0.0
2014-Nov-12 11:22N 26°00' E 119°29'0 0.0
2014-Nov-12 10:22N 26°00' E 119°29'0 0.0
2014-Nov-12 09:28N 26°00' E 119°29'0 0.0
2014-Nov-12 08:28N 26°00' E 119°29'0 0.0
2014-Nov-12 07:22N 26°00' E 119°29'0 0.0
2014-Nov-12 06:28N 26°00' E 119°29'0 0.0
2014-Nov-12 05:28N 26°00' E 119°29'0 0.0
2014-Nov-12 04:28N 26°00' E 119°29'0 0.0
2014-Nov-12 03:28N 26°00' E 119°29'0 0.0
2014-Nov-12 02:28N 26°00' E 119°29'0 0.0
2014-Nov-12 01:28N 26°00' E 119°29'0 0.0
2014-Nov-12 00:33N 26°00' E 119°29'7 7.3
2014-Nov-11 23:33N 26°07' E 119°33'  

Dump ship's entire track history